sensor_id;sensor_type;location;lat;lon;timestamp;temperature;humidity
4673;DHT22;61885;53.560;9.940;2023-03-01T00:02:21;1.90;9.40
4673;DHT22;61885;53.560;9.940;2023-03-01T00:04:51;1.90;8.10
4673;DHT22;61885;53.560;9.940;2023-03-01T00:07:26;1.90;9.00
4673;DHT22;61885;53.560;9.940;2023-03-01T00:09:58;1.90;8.20
4673;DHT22;61885;53.560;9.940;2023-03-01T00:12:28;1.80;8.20
4673;DHT22;61885;53.560;9.940;2023-03-01T00:14:57;1.80;9.00
4673;DHT22;61885;53.560;9.940;2023-03-01T00:17:30;1.80;9.30
4673;DHT22;61885;53.560;9.940;2023-03-01T00:20:00;1.80;9.70
4673;DHT22;61885;53.560;9.940;2023-03-01T00:22:40;1.80;9.70
4673;DHT22;61885;53.560;9.940;2023-03-01T00:25:12;1.70;11.10
4673;DHT22;61885;53.560;9.940;2023-03-01T00:27:42;1.70;11.40
4673;DHT22;61885;53.560;9.940;2023-03-01T00:30:12;1.70;12.20
4673;DHT22;61885;53.560;9.940;2023-03-01T00:32:42;1.70;11.90
4673;DHT22;61885;53.560;9.940;2023-03-01T00:35:16;1.70;13.30
4673;DHT22;61885;53.560;9.940;2023-03-01T00:37:51;1.60;13.30
4673;DHT22;61885;53.560;9.940;2023-03-01T00:40:24;1.60;13.20
4673;DHT22;61885;53.560;9.940;2023-03-01T00:42:54;1.60;13.80
4673;DHT22;61885;53.560;9.940;2023-03-01T00:45:24;1.60;13.50
4673;DHT22;61885;53.560;9.940;2023-03-01T00:47:56;1.60;13.60
4673;DHT22;61885;53.560;9.940;2023-03-01T00:50:26;1.60;14.20
4673;DHT22;61885;53.560;9.940;2023-03-01T00:52:58;1.50;14.20
4673;DHT22;61885;53.560;9.940;2023-03-01T00:55:29;1.50;15.80
4673;DHT22;61885;53.560;9.940;2023-03-01T00:57:58;1.60;15.80
4673;DHT22;61885;53.560;9.940;2023-03-01T01:00:28;1.50;16.00
4673;DHT22;61885;53.560;9.940;2023-03-01T01:02:58;1.50;16.00
4673;DHT22;61885;53.560;9.940;2023-03-01T01:05:29;1.50;16.30
4673;DHT22;61885;53.560;9.940;2023-03-01T01:08:01;1.50;16.60
4673;DHT22;61885;53.560;9.940;2023-03-01T01:10:33;1.60;16.50
4673;DHT22;61885;53.560;9.940;2023-03-01T01:13:03;1.50;15.80
4673;DHT22;61885;53.560;9.940;2023-03-01T01:15:36;1.60;15.60
4673;DHT22;61885;53.560;9.940;2023-03-01T01:18:07;1.60;14.80
4673;DHT22;61885;53.560;9.940;2023-03-01T01:20:37;1.60;13.80
4673;DHT22;61885;53.560;9.940;2023-03-01T01:23:09;1.50;13.50
4673;DHT22;61885;53.560;9.940;2023-03-01T01:25:39;1.50;12.50
4673;DHT22;61885;53.560;9.940;2023-03-01T01:28:09;1.50;12.30
4673;DHT22;61885;53.560;9.940;2023-03-01T01:30:38;1.50;12.10
4673;DHT22;61885;53.560;9.940;2023-03-01T01:33:08;1.50;12.10
4673;DHT22;61885;53.560;9.940;2023-03-01T01:35:40;1.50;11.20
4673;DHT22;61885;53.560;9.940;2023-03-01T01:38:12;1.50;10.10
4673;DHT22;61885;53.560;9.940;2023-03-01T01:40:45;1.50;10.90
4673;DHT22;61885;53.560;9.940;2023-03-01T01:43:20;1.60;11.70
4673;DHT22;61885;53.560;9.940;2023-03-01T01:45:52;1.60;9.60
4673;DHT22;61885;53.560;9.940;2023-03-01T01:48:32;1.60;8.70
4673;DHT22;61885;53.560;9.940;2023-03-01T01:51:09;1.50;8.40
4673;DHT22;61885;53.560;9.940;2023-03-01T01:53:45;1.50;9.10
4673;DHT22;61885;53.560;9.940;2023-03-01T01:56:18;1.50;8.00
4673;DHT22;61885;53.560;9.940;2023-03-01T01:58:48;1.50;8.50
4673;DHT22;61885;53.560;9.940;2023-03-01T02:01:17;1.40;8.10
4673;DHT22;61885;53.560;9.940;2023-03-01T02:03:48;1.40;8.00
4673;DHT22;61885;53.560;9.940;2023-03-01T02:06:21;1.40;7.00
4673;DHT22;61885;53.560;9.940;2023-03-01T02:09:00;1.40;7.40
4673;DHT22;61885;53.560;9.940;2023-03-01T02:11:32;1.40;7.20
4673;DHT22;61885;53.560;9.940;2023-03-01T02:14:04;1.30;7.30
4673;DHT22;61885;53.560;9.940;2023-03-01T02:16:33;1.30;7.70
4673;DHT22;61885;53.560;9.940;2023-03-01T02:19:05;1.30;7.30
4673;DHT22;61885;53.560;9.940;2023-03-01T02:21:44;1.30;7.70
4673;DHT22;61885;53.560;9.940;2023-03-01T02:24:23;1.30;6.80
4673;DHT22;61885;53.560;9.940;2023-03-01T02:26:58;1.20;7.70
4673;DHT22;61885;53.560;9.940;2023-03-01T02:29:34;1.30;6.90
4673;DHT22;61885;53.560;9.940;2023-03-01T02:32:05;1.40;6.00
4673;DHT22;61885;53.560;9.940;2023-03-01T02:34:33;1.40;6.10
4673;DHT22;61885;53.560;9.940;2023-03-01T02:37:06;1.30;5.70
4673;DHT22;61885;53.560;9.940;2023-03-01T02:39:41;1.30;6.50
4673;DHT22;61885;53.560;9.940;2023-03-01T02:42:15;1.30;5.70
4673;DHT22;61885;53.560;9.940;2023-03-01T02:44:49;1.40;5.70
4673;DHT22;61885;53.560;9.940;2023-03-01T02:47:22;1.40;5.80
4673;DHT22;61885;53.560;9.940;2023-03-01T02:49:51;1.40;5.70
4673;DHT22;61885;53.560;9.940;2023-03-01T02:52:37;1.30;5.60
4673;DHT22;61885;53.560;9.940;2023-03-01T02:55:12;1.30;5.60
4673;DHT22;61885;53.560;9.940;2023-03-01T02:57:48;1.30;5.70
4673;DHT22;61885;53.560;9.940;2023-03-01T03:00:24;1.20;6.50
4673;DHT22;61885;53.560;9.940;2023-03-01T03:02:55;1.20;7.20
4673;DHT22;61885;53.560;9.940;2023-03-01T03:05:27;1.20;8.10
4673;DHT22;61885;53.560;9.940;2023-03-01T03:07:59;1.10;9.10
4673;DHT22;61885;53.560;9.940;2023-03-01T03:10:31;1.10;9.40
4673;DHT22;61885;53.560;9.940;2023-03-01T03:13:04;1.10;9.60
4673;DHT22;61885;53.560;9.940;2023-03-01T03:15:38;1.00;10.10
4673;DHT22;61885;53.560;9.940;2023-03-01T03:18:10;1.00;10.70
4673;DHT22;61885;53.560;9.940;2023-03-01T03:20:41;1.00;11.70
4673;DHT22;61885;53.560;9.940;2023-03-01T03:23:14;1.00;11.70
4673;DHT22;61885;53.560;9.940;2023-03-01T03:25:48;1.10;11.50
4673;DHT22;61885;53.560;9.940;2023-03-01T03:28:18;1.20;9.80
4673;DHT22;61885;53.560;9.940;2023-03-01T03:30:50;1.20;9.50
4673;DHT22;61885;53.560;9.940;2023-03-01T03:33:20;1.20;8.90
4673;DHT22;61885;53.560;9.940;2023-03-01T03:35:55;1.20;8.40
4673;DHT22;61885;53.560;9.940;2023-03-01T03:38:25;1.20;6.90
4673;DHT22;61885;53.560;9.940;2023-03-01T03:41:00;1.20;7.30
4673;DHT22;61885;53.560;9.940;2023-03-01T03:43:32;1.20;6.60
4673;DHT22;61885;53.560;9.940;2023-03-01T03:46:05;1.30;6.60
4673;DHT22;61885;53.560;9.940;2023-03-01T03:48:39;1.30;6.00
4673;DHT22;61885;53.560;9.940;2023-03-01T03:51:11;1.30;5.60
4673;DHT22;61885;53.560;9.940;2023-03-01T03:53:41;1.30;5.60
4673;DHT22;61885;53.560;9.940;2023-03-01T03:56:11;1.40;5.50
4673;DHT22;61885;53.560;9.940;2023-03-01T03:58:41;1.40;5.50
4673;DHT22;61885;53.560;9.940;2023-03-01T04:01:13;1.40;4.90
4673;DHT22;61885;53.560;9.940;2023-03-01T04:03:46;1.40;4.90
4673;DHT22;61885;53.560;9.940;2023-03-01T04:06:22;1.50;4.50
4673;DHT22;61885;53.560;9.940;2023-03-01T04:08:54;1.50;4.80
4673;DHT22;61885;53.560;9.940;2023-03-01T04:11:25;1.60;4.40
4673;DHT22;61885;53.560;9.940;2023-03-01T04:13:57;1.60;4.50
4673;DHT22;61885;53.560;9.940;2023-03-01T04:16:33;1.70;4.20
4673;DHT22;61885;53.560;9.940;2023-03-01T04:19:03;1.70;2.80
4673;DHT22;61885;53.560;9.940;2023-03-01T04:21:33;1.70;3.00
4673;DHT22;61885;53.560;9.940;2023-03-01T04:24:03;1.70;3.00
4673;DHT22;61885;53.560;9.940;2023-03-01T04:26:33;1.80;2.30
4673;DHT22;61885;53.560;9.940;2023-03-01T04:29:03;1.80;2.20
4673;DHT22;61885;53.560;9.940;2023-03-01T04:31:35;1.80;1.80
4673;DHT22;61885;53.560;9.940;2023-03-01T04:34:05;1.80;2.30
4673;DHT22;61885;53.560;9.940;2023-03-01T04:36:35;1.80;1.80
4673;DHT22;61885;53.560;9.940;2023-03-01T04:39:06;1.80;1.90
4673;DHT22;61885;53.560;9.940;2023-03-01T04:41:39;1.80;2.00
4673;DHT22;61885;53.560;9.940;2023-03-01T04:44:10;1.90;1.90
4673;DHT22;61885;53.560;9.940;2023-03-01T04:46:42;1.90;2.40
4673;DHT22;61885;53.560;9.940;2023-03-01T04:49:12;2.00;2.70
4673;DHT22;61885;53.560;9.940;2023-03-01T04:51:42;2.10;2.50
4673;DHT22;61885;53.560;9.940;2023-03-01T04:54:12;2.10;1.80
4673;DHT22;61885;53.560;9.940;2023-03-01T04:56:43;2.10;2.30
4673;DHT22;61885;53.560;9.940;2023-03-01T04:59:12;2.00;2.90
4673;DHT22;61885;53.560;9.940;2023-03-01T05:01:44;2.00;3.30
4673;DHT22;61885;53.560;9.940;2023-03-01T05:04:19;2.00;3.00
4673;DHT22;61885;53.560;9.940;2023-03-01T05:06:49;2.00;2.60
4673;DHT22;61885;53.560;9.940;2023-03-01T05:09:20;2.00;2.70
4673;DHT22;61885;53.560;9.940;2023-03-01T05:11:49;2.00;2.40
4673;DHT22;61885;53.560;9.940;2023-03-01T05:14:19;2.10;1.90
4673;DHT22;61885;53.560;9.940;2023-03-01T05:16:52;2.10;1.90
4673;DHT22;61885;53.560;9.940;2023-03-01T05:19:24;2.10;2.10
4673;DHT22;61885;53.560;9.940;2023-03-01T05:21:54;2.00;1.00
4673;DHT22;61885;53.560;9.940;2023-03-01T05:24:34;2.00;1.60
4673;DHT22;61885;53.560;9.940;2023-03-01T05:27:05;2.00;1.80
4673;DHT22;61885;53.560;9.940;2023-03-01T05:29:36;2.00;2.70
4673;DHT22;61885;53.560;9.940;2023-03-01T05:32:09;2.00;2.40
4673;DHT22;61885;53.560;9.940;2023-03-01T05:34:44;2.00;2.60
4673;DHT22;61885;53.560;9.940;2023-03-01T05:37:14;2.00;2.00
4673;DHT22;61885;53.560;9.940;2023-03-01T05:39:43;2.00;2.40
4673;DHT22;61885;53.560;9.940;2023-03-01T05:42:13;2.00;2.30
4673;DHT22;61885;53.560;9.940;2023-03-01T05:44:48;2.00;2.10
4673;DHT22;61885;53.560;9.940;2023-03-01T05:47:23;2.10;2.30
4673;DHT22;61885;53.560;9.940;2023-03-01T05:49:52;2.10;2.10
4673;DHT22;61885;53.560;9.940;2023-03-01T05:52:25;2.10;2.50
4673;DHT22;61885;53.560;9.940;2023-03-01T05:54:54;2.10;3.30
4673;DHT22;61885;53.560;9.940;2023-03-01T05:57:24;2.20;2.30
4673;DHT22;61885;53.560;9.940;2023-03-01T05:59:54;2.20;2.10
4673;DHT22;61885;53.560;9.940;2023-03-01T06:02:27;2.20;2.20
4673;DHT22;61885;53.560;9.940;2023-03-01T06:04:57;2.20;1.80
4673;DHT22;61885;53.560;9.940;2023-03-01T06:07:30;2.20;2.20
4673;DHT22;61885;53.560;9.940;2023-03-01T06:09:59;2.20;2.60
4673;DHT22;61885;53.560;9.940;2023-03-01T06:12:31;2.20;2.30
4673;DHT22;61885;53.560;9.940;2023-03-01T06:15:02;2.20;2.40
4673;DHT22;61885;53.560;9.940;2023-03-01T06:17:46;2.20;2.00
4673;DHT22;61885;53.560;9.940;2023-03-01T06:20:30;2.20;3.00
4673;DHT22;61885;53.560;9.940;2023-03-01T06:23:10;2.20;1.90
4673;DHT22;61885;53.560;9.940;2023-03-01T06:25:40;2.30;2.90
4673;DHT22;61885;53.560;9.940;2023-03-01T06:28:09;2.30;1.00
4673;DHT22;61885;53.560;9.940;2023-03-01T06:30:39;2.30;1.40
4673;DHT22;61885;53.560;9.940;2023-03-01T06:33:14;2.20;1.40
4673;DHT22;61885;53.560;9.940;2023-03-01T06:35:45;2.30;1.70
4673;DHT22;61885;53.560;9.940;2023-03-01T06:38:14;2.30;1.60
4673;DHT22;61885;53.560;9.940;2023-03-01T06:40:45;2.30;1.60
4673;DHT22;61885;53.560;9.940;2023-03-01T06:43:23;2.30;1.50
4673;DHT22;61885;53.560;9.940;2023-03-01T06:45:53;2.30;1.10
4673;DHT22;61885;53.560;9.940;2023-03-01T06:48:25;2.30;1.50
4673;DHT22;61885;53.560;9.940;2023-03-01T06:50:58;2.30;1.70
4673;DHT22;61885;53.560;9.940;2023-03-01T06:53:31;2.40;2.00
4673;DHT22;61885;53.560;9.940;2023-03-01T06:56:04;2.40;1.60
4673;DHT22;61885;53.560;9.940;2023-03-01T06:58:35;2.50;1.50
4673;DHT22;61885;53.560;9.940;2023-03-01T07:01:06;2.50;1.20
4673;DHT22;61885;53.560;9.940;2023-03-01T07:03:39;2.50;1.00
4673;DHT22;61885;53.560;9.940;2023-03-01T07:06:13;2.50;1.40
4673;DHT22;61885;53.560;9.940;2023-03-01T07:08:47;2.50;2.30
4673;DHT22;61885;53.560;9.940;2023-03-01T07:11:28;2.50;3.10
4673;DHT22;61885;53.560;9.940;2023-03-01T07:13:58;3.60;4.30
4673;DHT22;61885;53.560;9.940;2023-03-01T07:16:29;2.60;2.90
4673;DHT22;61885;53.560;9.940;2023-03-01T07:19:03;2.80;2.00
4673;DHT22;61885;53.560;9.940;2023-03-01T07:21:33;2.70;2.20
4673;DHT22;61885;53.560;9.940;2023-03-01T07:24:09;2.70;2.80
4673;DHT22;61885;53.560;9.940;2023-03-01T07:26:48;2.70;2.30
4673;DHT22;61885;53.560;9.940;2023-03-01T07:29:21;2.70;2.20
4673;DHT22;61885;53.560;9.940;2023-03-01T07:31:50;2.60;1.10
4673;DHT22;61885;53.560;9.940;2023-03-01T07:34:23;2.70;2.70
4673;DHT22;61885;53.560;9.940;2023-03-01T07:36:54;2.80;2.60
4673;DHT22;61885;53.560;9.940;2023-03-01T07:39:28;2.80;3.10
4673;DHT22;61885;53.560;9.940;2023-03-01T07:41:58;2.80;2.40
4673;DHT22;61885;53.560;9.940;2023-03-01T07:44:29;2.80;3.30
4673;DHT22;61885;53.560;9.940;2023-03-01T07:46:59;2.70;3.70
4673;DHT22;61885;53.560;9.940;2023-03-01T07:49:35;2.70;3.80
4673;DHT22;61885;53.560;9.940;2023-03-01T07:52:09;2.80;4.00
4673;DHT22;61885;53.560;9.940;2023-03-01T07:54:42;2.80;4.00
4673;DHT22;61885;53.560;9.940;2023-03-01T07:57:14;2.80;3.40
4673;DHT22;61885;53.560;9.940;2023-03-01T07:59:45;2.80;3.10
4673;DHT22;61885;53.560;9.940;2023-03-01T08:02:15;2.90;3.30
4673;DHT22;61885;53.560;9.940;2023-03-01T08:04:48;2.90;2.60
4673;DHT22;61885;53.560;9.940;2023-03-01T08:07:25;2.90;2.90
4673;DHT22;61885;53.560;9.940;2023-03-01T08:09:54;2.80;3.20
4673;DHT22;61885;53.560;9.940;2023-03-01T08:12:27;2.80;3.90
4673;DHT22;61885;53.560;9.940;2023-03-01T08:14:57;2.90;4.60
4673;DHT22;61885;53.560;9.940;2023-03-01T08:17:26;2.90;5.40
4673;DHT22;61885;53.560;9.940;2023-03-01T08:19:59;2.90;6.00
4673;DHT22;61885;53.560;9.940;2023-03-01T08:22:30;3.00;6.50
4673;DHT22;61885;53.560;9.940;2023-03-01T08:25:02;3.10;6.90
4673;DHT22;61885;53.560;9.940;2023-03-01T08:27:34;3.20;8.30
4673;DHT22;61885;53.560;9.940;2023-03-01T08:30:04;3.30;6.90
4673;DHT22;61885;53.560;9.940;2023-03-01T08:32:39;3.40;6.50
4673;DHT22;61885;53.560;9.940;2023-03-01T08:35:11;3.50;5.90
4673;DHT22;61885;53.560;9.940;2023-03-01T08:37:44;3.50;5.60
4673;DHT22;61885;53.560;9.940;2023-03-01T08:40:14;3.60;6.70
4673;DHT22;61885;53.560;9.940;2023-03-01T08:42:44;3.70;6.70
4673;DHT22;61885;53.560;9.940;2023-03-01T08:45:14;3.80;5.90
4673;DHT22;61885;53.560;9.940;2023-03-01T08:47:45;3.90;5.60
4673;DHT22;61885;53.560;9.940;2023-03-01T08:50:18;3.90;5.80
4673;DHT22;61885;53.560;9.940;2023-03-01T08:52:58;4.00;6.00
4673;DHT22;61885;53.560;9.940;2023-03-01T08:55:28;4.00;6.20
4673;DHT22;61885;53.560;9.940;2023-03-01T08:57:58;4.10;6.30
4673;DHT22;61885;53.560;9.940;2023-03-01T09:00:27;4.10;6.90
4673;DHT22;61885;53.560;9.940;2023-03-01T09:02:57;4.20;7.50
4673;DHT22;61885;53.560;9.940;2023-03-01T09:05:31;4.20;7.60
4673;DHT22;61885;53.560;9.940;2023-03-01T09:08:01;4.20;8.10
4673;DHT22;61885;53.560;9.940;2023-03-01T09:10:32;4.20;8.80
4673;DHT22;61885;53.560;9.940;2023-03-01T09:13:04;4.20;8.40
4673;DHT22;61885;53.560;9.940;2023-03-01T09:15:35;4.30;7.90
4673;DHT22;61885;53.560;9.940;2023-03-01T09:18:07;4.40;7.70
4673;DHT22;61885;53.560;9.940;2023-03-01T09:20:40;4.50;7.70
4673;DHT22;61885;53.560;9.940;2023-03-01T09:23:10;4.50;7.70
4673;DHT22;61885;53.560;9.940;2023-03-01T09:25:40;4.60;7.80
4673;DHT22;61885;53.560;9.940;2023-03-01T09:28:09;4.70;7.90
4673;DHT22;61885;53.560;9.940;2023-03-01T09:30:41;4.60;7.50
4673;DHT22;61885;53.560;9.940;2023-03-01T09:33:12;4.60;7.80
4673;DHT22;61885;53.560;9.940;2023-03-01T09:35:47;4.70;8.10
4673;DHT22;61885;53.560;9.940;2023-03-01T09:38:17;4.70;7.90
4673;DHT22;61885;53.560;9.940;2023-03-01T09:40:53;4.80;7.90
4673;DHT22;61885;53.560;9.940;2023-03-01T09:43:26;4.80;7.70
4673;DHT22;61885;53.560;9.940;2023-03-01T09:46:01;4.80;8.60
4673;DHT22;61885;53.560;9.940;2023-03-01T09:48:39;4.80;8.90
4673;DHT22;61885;53.560;9.940;2023-03-01T09:51:17;4.80;9.70
4673;DHT22;61885;53.560;9.940;2023-03-01T09:53:48;4.70;10.60
4673;DHT22;61885;53.560;9.940;2023-03-01T09:56:22;4.60;12.30
4673;DHT22;61885;53.560;9.940;2023-03-01T09:58:58;4.60;12.70
4673;DHT22;61885;53.560;9.940;2023-03-01T10:01:35;4.60;15.70
4673;DHT22;61885;53.560;9.940;2023-03-01T10:04:24;4.50;16.20
4673;DHT22;61885;53.560;9.940;2023-03-01T10:07:17;4.40;18.90
4673;DHT22;61885;53.560;9.940;2023-03-01T10:09:50;4.30;20.90
4673;DHT22;61885;53.560;9.940;2023-03-01T10:12:24;4.20;22.20
4673;DHT22;61885;53.560;9.940;2023-03-01T10:15:02;4.20;22.10
4673;DHT22;61885;53.560;9.940;2023-03-01T10:17:43;4.30;22.70
4673;DHT22;61885;53.560;9.940;2023-03-01T10:20:19;4.30;22.50
4673;DHT22;61885;53.560;9.940;2023-03-01T10:22:55;5.00;23.30
4673;DHT22;61885;53.560;9.940;2023-03-01T10:25:41;4.40;22.70
4673;DHT22;61885;53.560;9.940;2023-03-01T10:28:26;4.50;22.90
4673;DHT22;61885;53.560;9.940;2023-03-01T10:31:09;4.60;22.00
4673;DHT22;61885;53.560;9.940;2023-03-01T10:33:42;4.70;21.20
4673;DHT22;61885;53.560;9.940;2023-03-01T10:36:17;4.70;20.50
4673;DHT22;61885;53.560;9.940;2023-03-01T10:38:53;4.80;21.50
4673;DHT22;61885;53.560;9.940;2023-03-01T10:41:27;4.90;21.80
4673;DHT22;61885;53.560;9.940;2023-03-01T10:43:59;4.90;21.60
4673;DHT22;61885;53.560;9.940;2023-03-01T10:46:45;4.90;21.80
4673;DHT22;61885;53.560;9.940;2023-03-01T10:49:19;4.90;22.60
4673;DHT22;61885;53.560;9.940;2023-03-01T10:51:53;4.90;22.70
4673;DHT22;61885;53.560;9.940;2023-03-01T10:54:27;5.00;23.00
4673;DHT22;61885;53.560;9.940;2023-03-01T10:57:22;5.00;22.90
4673;DHT22;61885;53.560;9.940;2023-03-01T11:00:22;5.00;23.70
4673;DHT22;61885;53.560;9.940;2023-03-01T11:03:10;5.00;23.90
4673;DHT22;61885;53.560;9.940;2023-03-01T11:05:54;4.90;24.80
4673;DHT22;61885;53.560;9.940;2023-03-01T11:08:36;4.90;25.90
4673;DHT22;61885;53.560;9.940;2023-03-01T11:11:30;4.80;26.50
4673;DHT22;61885;53.560;9.940;2023-03-01T11:14:03;4.80;26.60
4673;DHT22;61885;53.560;9.940;2023-03-01T11:16:37;4.90;27.30
4673;DHT22;61885;53.560;9.940;2023-03-01T11:19:19;4.90;27.70
4673;DHT22;61885;53.560;9.940;2023-03-01T11:21:58;4.90;27.90
4673;DHT22;61885;53.560;9.940;2023-03-01T11:24:34;5.00;28.40
4673;DHT22;61885;53.560;9.940;2023-03-01T11:27:16;5.10;28.80
4673;DHT22;61885;53.560;9.940;2023-03-01T11:29:50;5.20;28.40
4673;DHT22;61885;53.560;9.940;2023-03-01T11:32:24;5.30;28.00
4673;DHT22;61885;53.560;9.940;2023-03-01T11:34:58;5.30;27.80
4673;DHT22;61885;53.560;9.940;2023-03-01T11:37:37;5.40;26.90
4673;DHT22;61885;53.560;9.940;2023-03-01T11:40:27;5.40;26.80
4673;DHT22;61885;53.560;9.940;2023-03-01T11:43:14;5.40;26.90
4673;DHT22;61885;53.560;9.940;2023-03-01T11:46:02;5.40;26.80
4673;DHT22;61885;53.560;9.940;2023-03-01T11:48:47;5.50;26.90
4673;DHT22;61885;53.560;9.940;2023-03-01T11:51:24;5.60;27.00
4673;DHT22;61885;53.560;9.940;2023-03-01T11:54:13;5.60;26.40
4673;DHT22;61885;53.560;9.940;2023-03-01T11:56:49;5.70;26.70
4673;DHT22;61885;53.560;9.940;2023-03-01T11:59:46;5.80;25.50
4673;DHT22;61885;53.560;9.940;2023-03-01T12:02:48;5.90;25.40
4673;DHT22;61885;53.560;9.940;2023-03-01T12:05:47;5.90;25.00
4673;DHT22;61885;53.560;9.940;2023-03-01T12:08:24;6.10;24.10
4673;DHT22;61885;53.560;9.940;2023-03-01T12:11:03;6.10;23.40
4673;DHT22;61885;53.560;9.940;2023-03-01T12:13:56;6.10;23.30
4673;DHT22;61885;53.560;9.940;2023-03-01T12:16:55;6.20;23.60
4673;DHT22;61885;53.560;9.940;2023-03-01T12:19:43;6.20;22.80
4673;DHT22;61885;53.560;9.940;2023-03-01T12:22:34;6.30;23.10
4673;DHT22;61885;53.560;9.940;2023-03-01T12:25:25;6.40;22.80
4673;DHT22;61885;53.560;9.940;2023-03-01T12:34:38;6.70;19.90
4673;DHT22;61885;53.560;9.940;2023-03-01T12:37:22;6.70;20.20
4673;DHT22;61885;53.560;9.940;2023-03-01T12:40:31;6.80;19.10
4673;DHT22;61885;53.560;9.940;2023-03-01T12:43:12;6.80;19.00
4673;DHT22;61885;53.560;9.940;2023-03-01T12:45:53;6.80;19.80
4673;DHT22;61885;53.560;9.940;2023-03-01T12:48:38;6.90;20.10
4673;DHT22;61885;53.560;9.940;2023-03-01T12:51:15;7.10;19.80
4673;DHT22;61885;53.560;9.940;2023-03-01T12:53:48;7.30;17.70
4673;DHT22;61885;53.560;9.940;2023-03-01T12:56:22;7.20;17.40
4673;DHT22;61885;53.560;9.940;2023-03-01T12:58:58;7.30;16.30
4673;DHT22;61885;53.560;9.940;2023-03-01T13:01:42;7.30;16.70
4673;DHT22;61885;53.560;9.940;2023-03-01T13:04:25;7.20;16.30
4673;DHT22;61885;53.560;9.940;2023-03-01T13:07:11;7.40;15.90
4673;DHT22;61885;53.560;9.940;2023-03-01T13:09:49;7.50;14.60
4673;DHT22;61885;53.560;9.940;2023-03-01T13:12:50;7.40;15.20
4673;DHT22;61885;53.560;9.940;2023-03-01T13:15:32;7.50;14.90
4673;DHT22;61885;53.560;9.940;2023-03-01T13:18:32;7.30;15.90
4673;DHT22;61885;53.560;9.940;2023-03-01T13:21:03;7.30;15.90
4673;DHT22;61885;53.560;9.940;2023-03-01T13:23:37;7.30;15.90
4673;DHT22;61885;53.560;9.940;2023-03-01T13:26:14;7.30;15.20
4673;DHT22;61885;53.560;9.940;2023-03-01T13:28:49;7.30;15.90
4673;DHT22;61885;53.560;9.940;2023-03-01T13:34:45;7.50;14.80
4673;DHT22;61885;53.560;9.940;2023-03-01T13:37:24;7.50;12.70
4673;DHT22;61885;53.560;9.940;2023-03-01T13:40:00;7.50;13.70
4673;DHT22;61885;53.560;9.940;2023-03-01T13:42:41;7.40;13.90
4673;DHT22;61885;53.560;9.940;2023-03-01T13:45:19;7.60;13.10
4673;DHT22;61885;53.560;9.940;2023-03-01T13:47:57;7.60;13.80
4673;DHT22;61885;53.560;9.940;2023-03-01T13:50:29;7.80;13.50
4673;DHT22;61885;53.560;9.940;2023-03-01T13:53:04;7.90;12.00
4673;DHT22;61885;53.560;9.940;2023-03-01T13:55:42;8.00;10.80
4673;DHT22;61885;53.560;9.940;2023-03-01T13:58:25;7.30;12.10
4673;DHT22;61885;53.560;9.940;2023-03-01T14:00:57;7.20;14.00
4673;DHT22;61885;53.560;9.940;2023-03-01T14:03:28;7.40;15.30
4673;DHT22;61885;53.560;9.940;2023-03-01T14:06:05;7.40;16.90
4673;DHT22;61885;53.560;9.940;2023-03-01T14:08:38;7.30;17.30
4673;DHT22;61885;53.560;9.940;2023-03-01T14:11:40;7.20;17.50
4673;DHT22;61885;53.560;9.940;2023-03-01T14:14:47;7.40;18.80
4673;DHT22;61885;53.560;9.940;2023-03-01T14:17:56;7.30;18.00
4673;DHT22;61885;53.560;9.940;2023-03-01T14:20:37;7.20;17.10
4673;DHT22;61885;53.560;9.940;2023-03-01T14:23:11;7.40;15.60
4673;DHT22;61885;53.560;9.940;2023-03-01T14:25:47;7.60;14.50
4673;DHT22;61885;53.560;9.940;2023-03-01T14:28:31;7.60;13.20
4673;DHT22;61885;53.560;9.940;2023-03-01T14:31:35;7.60;13.20
4673;DHT22;61885;53.560;9.940;2023-03-01T14:34:05;7.40;14.10
4673;DHT22;61885;53.560;9.940;2023-03-01T14:36:35;7.50;12.70
4673;DHT22;61885;53.560;9.940;2023-03-01T14:39:16;7.60;11.60
4673;DHT22;61885;53.560;9.940;2023-03-01T14:41:46;7.40;10.60
4673;DHT22;61885;53.560;9.940;2023-03-01T14:44:23;7.60;12.30
4673;DHT22;61885;53.560;9.940;2023-03-01T14:46:54;7.90;11.00
4673;DHT22;61885;53.560;9.940;2023-03-01T14:49:28;8.20;9.10
4673;DHT22;61885;53.560;9.940;2023-03-01T14:52:03;8.10;8.00
4673;DHT22;61885;53.560;9.940;2023-03-01T14:54:39;7.90;10.40
4673;DHT22;61885;53.560;9.940;2023-03-01T14:57:14;7.70;11.10
4673;DHT22;61885;53.560;9.940;2023-03-01T14:59:50;7.40;11.50
4673;DHT22;61885;53.560;9.940;2023-03-01T15:02:24;7.40;13.00
4673;DHT22;61885;53.560;9.940;2023-03-01T15:04:57;7.50;11.30
4673;DHT22;61885;53.560;9.940;2023-03-01T15:07:30;7.60;11.80
4673;DHT22;61885;53.560;9.940;2023-03-01T15:10:02;7.50;12.30
4673;DHT22;61885;53.560;9.940;2023-03-01T15:12:38;7.60;12.00
4673;DHT22;61885;53.560;9.940;2023-03-01T15:15:38;7.80;11.40
4673;DHT22;61885;53.560;9.940;2023-03-01T15:18:16;8.10;10.40
4673;DHT22;61885;53.560;9.940;2023-03-01T15:20:47;8.20;9.20
4673;DHT22;61885;53.560;9.940;2023-03-01T15:23:25;8.10;7.80
4673;DHT22;61885;53.560;9.940;2023-03-01T15:25:55;7.90;8.60
4673;DHT22;61885;53.560;9.940;2023-03-01T15:28:32;8.10;8.60
4673;DHT22;61885;53.560;9.940;2023-03-01T15:31:22;8.40;7.80
4673;DHT22;61885;53.560;9.940;2023-03-01T15:33:53;8.50;6.30
4673;DHT22;61885;53.560;9.940;2023-03-01T15:36:42;8.70;4.70
4673;DHT22;61885;53.560;9.940;2023-03-01T15:39:32;8.60;3.00
4673;DHT22;61885;53.560;9.940;2023-03-01T15:42:07;8.60;3.00
4673;DHT22;61885;53.560;9.940;2023-03-01T15:44:39;8.70;2.30
4673;DHT22;61885;53.560;9.940;2023-03-01T15:47:30;9.00;1.20
4673;DHT22;61885;53.560;9.940;2023-03-01T15:50:01;9.50;1.00
4673;DHT22;61885;53.560;9.940;2023-03-01T15:52:34;9.40;1.00
4673;DHT22;61885;53.560;9.940;2023-03-01T15:55:14;9.20;1.00
4673;DHT22;61885;53.560;9.940;2023-03-01T15:57:49;9.20;1.00
4673;DHT22;61885;53.560;9.940;2023-03-01T16:00:22;9.70;1.00
4673;DHT22;61885;53.560;9.940;2023-03-01T16:02:54;9.60;1.00
4673;DHT22;61885;53.560;9.940;2023-03-01T16:05:26;9.30;1.00
4673;DHT22;61885;53.560;9.940;2023-03-01T16:08:00;9.50;1.00
4673;DHT22;61885;53.560;9.940;2023-03-01T16:10:30;8.80;1.00
4673;DHT22;61885;53.560;9.940;2023-03-01T16:13:00;9.00;1.00
4673;DHT22;61885;53.560;9.940;2023-03-01T16:15:33;8.70;1.00
4673;DHT22;61885;53.560;9.940;2023-03-01T16:18:07;8.10;3.60
4673;DHT22;61885;53.560;9.940;2023-03-01T16:20:38;8.10;5.40
4673;DHT22;61885;53.560;9.940;2023-03-01T16:23:11;7.60;7.50
4673;DHT22;61885;53.560;9.940;2023-03-01T16:25:41;7.40;10.60
4673;DHT22;61885;53.560;9.940;2023-03-01T16:28:17;7.00;13.70
4673;DHT22;61885;53.560;9.940;2023-03-01T16:30:50;6.80;15.50
4673;DHT22;61885;53.560;9.940;2023-03-01T16:33:22;6.70;17.90
4673;DHT22;61885;53.560;9.940;2023-03-01T16:35:52;6.50;18.80
4673;DHT22;61885;53.560;9.940;2023-03-01T16:38:22;6.50;19.70
4673;DHT22;61885;53.560;9.940;2023-03-01T16:40:52;6.50;20.40
4673;DHT22;61885;53.560;9.940;2023-03-01T16:43:24;6.40;21.00
4673;DHT22;61885;53.560;9.940;2023-03-01T16:45:55;6.30;21.50
4673;DHT22;61885;53.560;9.940;2023-03-01T16:48:30;6.20;21.60
4673;DHT22;61885;53.560;9.940;2023-03-01T16:51:00;6.20;22.00
4673;DHT22;61885;53.560;9.940;2023-03-01T16:53:30;6.20;22.30
4673;DHT22;61885;53.560;9.940;2023-03-01T16:56:03;6.20;22.00
4673;DHT22;61885;53.560;9.940;2023-03-01T16:58:37;6.10;22.10
4673;DHT22;61885;53.560;9.940;2023-03-01T17:01:10;6.00;22.20
4673;DHT22;61885;53.560;9.940;2023-03-01T17:03:45;5.90;23.10
4673;DHT22;61885;53.560;9.940;2023-03-01T17:06:19;5.80;22.90
4673;DHT22;61885;53.560;9.940;2023-03-01T17:08:53;5.80;22.60
4673;DHT22;61885;53.560;9.940;2023-03-01T17:11:23;5.70;22.50